^^
Station Historical Data
Daily Summary for September 20, 2017 Units:  Both    English   Metric
« Previous Day
Next Day »
Daily Weekly Monthly Yearly Custom
  High: Low: Average:
Temperature: TemperatureF °F /  -17.8 °C 62.8 °F /  17.1 °C 79.7 °F /  26.5 °C
Dew Point: DewpointF °F /  -17.8 °C 11.5 °F /  -11.4 °C 26.6 °F /  -3 °C
Humidity: Humidity% 9% 15%
Wind Speed: WindSpeedMPHmph /  0km/h - 1.6mph /  2.6km/h
Wind Gust: WindSpeedGustMPHmph /  0km/h - -
Wind- - ESE
Pressure: PressureIn in /  0 hPa 29.81 in /  1009.4 hPa -
Precipitation: 0.00 in /  0 mm    
Historical Graphs
 
 
Tabular Data for September 20, 2017
Time Temperature Dew Point Pressure Wind Wind Speed Wind Gust Humidity Rainfall Rate (Hourly) solar Conditions
TemperatureF °F /  -17.8 °C DewpointF °F /  -17.8 °C PressureInin /  0hPa Calm     Humidity% HourlyPrecipInin /  0mm SolarRadiationWatts/m^2 W/m2 Conditions
00:02 76.5 °F /  24.7 °C 15.8 °F /  -9 °C 29.86in /  1011.1hPa SE 2.0mph /  3.2km/h 4.0mph /  6.4km/h 10% 0.00in /  0mm 0.0 W/m2
00:08 76.5 °F /  24.7 °C 15.8 °F /  -9 °C 29.86in /  1011.1hPa SE 2.0mph /  3.2km/h 7.0mph /  11.3km/h 10% 0.00in /  0mm 0.0 W/m2
00:14 76.3 °F /  24.6 °C 13.3 °F /  -10.4 °C 29.86in /  1011.1hPa SSE 2.0mph /  3.2km/h 10.0mph /  16.1km/h 9% 0.00in /  0mm 0.0 W/m2
00:20 76.3 °F /  24.6 °C 13.3 °F /  -10.4 °C 29.85in /  1010.7hPa Calm   5.0mph /  8km/h 9% 0.00in /  0mm 0.0 W/m2
00:26 76.1 °F /  24.5 °C 13.1 °F /  -10.5 °C 29.85in /  1010.7hPa Calm   3.0mph /  4.8km/h 9% 0.00in /  0mm 0.0 W/m2
00:32 75.9 °F /  24.4 °C 13.1 °F /  -10.5 °C 29.85in /  1010.7hPa Calm   2.0mph /  3.2km/h 9% 0.00in /  0mm 0.0 W/m2
00:38 75.6 °F /  24.2 °C 15.1 °F /  -9.4 °C 29.85in /  1010.7hPa Calm     10% 0.00in /  0mm 0.0 W/m2
00:45 74.7 °F /  23.7 °C 14.5 °F /  -9.7 °C 29.86in /  1011.1hPa Calm     10% 0.00in /  0mm 0.0 W/m2
00:51 73.9 °F /  23.3 °C 16.2 °F /  -8.8 °C 29.85in /  1010.7hPa Calm     11% 0.00in /  0mm 0.0 W/m2
00:57 73.0 °F /  22.8 °C 13.3 °F /  -10.4 °C 29.85in /  1010.7hPa Calm   2.0mph /  3.2km/h 10% 0.00in /  0mm 0.0 W/m2
01:03 72.9 °F /  22.7 °C 13.1 °F /  -10.5 °C 29.85in /  1010.7hPa Calm   1.0mph /  1.6km/h 10% 0.00in /  0mm 0.0 W/m2
01:09 72.9 °F /  22.7 °C 13.1 °F /  -10.5 °C 29.85in /  1010.7hPa Calm   1.0mph /  1.6km/h 10% 0.00in /  0mm 0.0 W/m2
01:15 72.7 °F /  22.6 °C 12.9 °F /  -10.6 °C 29.85in /  1010.7hPa Calm   6.0mph /  9.7km/h 10% 0.00in /  0mm 0.0 W/m2
01:21 73.0 °F /  22.8 °C 13.3 °F /  -10.4 °C 29.85in /  1010.7hPa NE 2.9mph /  4.7km/h 9.0mph /  14.5km/h 10% 0.00in /  0mm 0.0 W/m2
01:27 73.8 °F /  23.2 °C 13.8 °F /  -10.1 °C 29.85in /  1010.7hPa SE 2.0mph /  3.2km/h 9.0mph /  14.5km/h 10% 0.00in /  0mm 0.0 W/m2
01:33 73.9 °F /  23.3 °C 11.5 °F /  -11.4 °C 29.85in /  1010.7hPa Calm   5.0mph /  8km/h 9% 0.00in /  0mm 0.0 W/m2
01:39 74.1 °F /  23.4 °C 11.7 °F /  -11.3 °C 29.85in /  1010.7hPa Calm   5.0mph /  8km/h 9% 0.00in /  0mm 0.0 W/m2
01:45 73.9 °F /  23.3 °C 11.5 °F /  -11.4 °C 29.85in /  1010.7hPa East 6.9mph /  11.1km/h 7.0mph /  11.3km/h 9% 0.00in /  0mm 0.0 W/m2
01:52 74.1 °F /  23.4 °C 11.7 °F /  -11.3 °C 29.84in /  1010.4hPa ENE 0.9mph /  1.4km/h 11.0mph /  17.7km/h 9% 0.00in /  0mm 0.0 W/m2
01:58 74.7 °F /  23.7 °C 12.0 °F /  -11.1 °C 29.84in /  1010.4hPa Calm   16.0mph /  25.7km/h 9% 0.00in /  0mm 0.0 W/m2
02:04 75.0 °F /  23.9 °C 12.4 °F /  -10.9 °C 29.84in /  1010.4hPa Calm   7.0mph /  11.3km/h 9% 0.00in /  0mm 0.0 W/m2
02:10 75.0 °F /  23.9 °C 12.4 °F /  -10.9 °C 29.84in /  1010.4hPa ENE 2.9mph /  4.7km/h 7.0mph /  11.3km/h 9% 0.00in /  0mm 0.0 W/m2
02:16 74.7 °F /  23.7 °C 12.0 °F /  -11.1 °C 29.84in /  1010.4hPa East 2.9mph /  4.7km/h 11.0mph /  17.7km/h 9% 0.00in /  0mm 0.0 W/m2
02:22 74.5 °F /  23.6 °C 12.0 °F /  -11.1 °C 29.83in /  1010hPa ESE 0.9mph /  1.4km/h 4.0mph /  6.4km/h 9% 0.00in /  0mm 0.0 W/m2
02:28 73.9 °F /  23.3 °C 16.2 °F /  -8.8 °C 29.83in /  1010hPa NNE 2.0mph /  3.2km/h 8.0mph /  12.9km/h 11% 0.00in /  0mm 0.0 W/m2
02:34 73.6 °F /  23.1 °C 17.8 °F /  -7.9 °C 29.83in /  1010hPa NE 2.9mph /  4.7km/h 7.0mph /  11.3km/h 12% 0.00in /  0mm 0.0 W/m2
02:41 73.2 °F /  22.9 °C 19.4 °F /  -7 °C 29.83in /  1010hPa East 4.0mph /  6.4km/h 7.0mph /  11.3km/h 13% 0.00in /  0mm 0.0 W/m2
02:47 73.0 °F /  22.8 °C 19.2 °F /  -7.1 °C 29.83in /  1010hPa NE 8.1mph /  13km/h 9.0mph /  14.5km/h 13% 0.00in /  0mm 0.0 W/m2
02:53 72.9 °F /  22.7 °C 20.8 °F /  -6.2 °C 29.83in /  1010hPa ENE 0.9mph /  1.4km/h 8.0mph /  12.9km/h 14% 0.00in /  0mm 0.0 W/m2
02:59 72.7 °F /  22.6 °C 20.7 °F /  -6.3 °C 29.82in /  1009.7hPa East 2.9mph /  4.7km/h 9.0mph /  14.5km/h 14% 0.00in /  0mm 0.0 W/m2
03:05 72.3 °F /  22.4 °C 20.5 °F /  -6.4 °C 29.82in /  1009.7hPa East 0.9mph /  1.4km/h 9.0mph /  14.5km/h 14% 0.00in /  0mm 0.0 W/m2
03:11 72.0 °F /  22.2 °C 20.1 °F /  -6.6 °C 29.82in /  1009.7hPa Calm   5.0mph /  8km/h 14% 0.00in /  0mm 0.0 W/m2
03:17 71.6 °F /  22 °C 21.6 °F /  -5.8 °C 29.82in /  1009.7hPa Calm   2.0mph /  3.2km/h 15% 0.00in /  0mm 0.0 W/m2
03:23 71.2 °F /  21.8 °C 24.3 °F /  -4.3 °C 29.82in /  1009.7hPa NNE 4.0mph /  6.4km/h 8.0mph /  12.9km/h 17% 0.00in /  0mm 0.0 W/m2
03:29 71.2 °F /  21.8 °C 24.3 °F /  -4.3 °C 29.82in /  1009.7hPa ENE 2.0mph /  3.2km/h 8.0mph /  12.9km/h 17% 0.00in /  0mm 0.0 W/m2
03:36 71.4 °F /  21.9 °C 24.3 °F /  -4.3 °C 29.82in /  1009.7hPa Calm   7.0mph /  11.3km/h 17% 0.00in /  0mm 0.0 W/m2
03:42 71.4 °F /  21.9 °C 24.3 °F /  -4.3 °C 29.81in /  1009.4hPa SE 4.9mph /  7.9km/h 14.0mph /  22.5km/h 17% 0.00in /  0mm 0.0 W/m2
03:48 71.4 °F /  21.9 °C 24.3 °F /  -4.3 °C 29.81in /  1009.4hPa East 0.9mph /  1.4km/h 8.0mph /  12.9km/h 17% 0.00in /  0mm 0.0 W/m2
03:54 71.2 °F /  21.8 °C 22.8 °F /  -5.1 °C 29.82in /  1009.7hPa East 2.9mph /  4.7km/h 8.0mph /  12.9km/h 16% 0.00in /  0mm 0.0 W/m2
04:00 71.1 °F /  21.7 °C 24.1 °F /  -4.4 °C 29.81in /  1009.4hPa Calm   7.0mph /  11.3km/h 17% 0.00in /  0mm 0.0 W/m2
04:06 70.9 °F /  21.6 °C 23.9 °F /  -4.5 °C 29.81in /  1009.4hPa ESE 6.0mph /  9.7km/h 9.0mph /  14.5km/h 17% 0.00in /  0mm 0.0 W/m2
04:12 71.1 °F /  21.7 °C 24.1 °F /  -4.4 °C 29.81in /  1009.4hPa Calm   6.0mph /  9.7km/h 17% 0.00in /  0mm 0.0 W/m2
04:18 70.9 °F /  21.6 °C 23.9 °F /  -4.5 °C 29.81in /  1009.4hPa Calm   6.0mph /  9.7km/h 17% 0.00in /  0mm 0.0 W/m2
04:24 70.3 °F /  21.3 °C 23.5 °F /  -4.7 °C 29.81in /  1009.4hPa ESE 0.9mph /  1.4km/h 4.0mph /  6.4km/h 17% 0.00in /  0mm 0.0 W/m2
04:31 70.0 °F /  21.1 °C 24.4 °F /  -4.2 °C 29.81in /  1009.4hPa Calm   11.0mph /  17.7km/h 18% 0.00in /  0mm 0.0 W/m2
04:37 69.8 °F /  21 °C 24.4 °F /  -4.2 °C 29.81in /  1009.4hPa ENE 4.9mph /  7.9km/h 5.0mph /  8km/h 18% 0.00in /  0mm 0.0 W/m2
04:43 69.8 °F /  21 °C 24.4 °F /  -4.2 °C 29.81in /  1009.4hPa East 4.0mph /  6.4km/h 5.0mph /  8km/h 18% 0.00in /  0mm 0.0 W/m2
04:49 69.6 °F /  20.9 °C 24.3 °F /  -4.3 °C 29.81in /  1009.4hPa East 0.9mph /  1.4km/h 3.0mph /  4.8km/h 18% 0.00in /  0mm 0.0 W/m2
04:55 69.6 °F /  20.9 °C 24.3 °F /  -4.3 °C 29.81in /  1009.4hPa SE 8.1mph /  13km/h 9.0mph /  14.5km/h 18% 0.00in /  0mm 0.0 W/m2
05:01 69.6 °F /  20.9 °C 24.3 °F /  -4.3 °C 29.81in /  1009.4hPa East 2.0mph /  3.2km/h 6.0mph /  9.7km/h 18% 0.00in /  0mm 0.0 W/m2
05:07 69.6 °F /  20.9 °C 24.3 °F /  -4.3 °C 29.81in /  1009.4hPa Calm   5.0mph /  8km/h 18% 0.00in /  0mm 0.0 W/m2
05:20 69.8 °F /  21 °C 25.7 °F /  -3.5 °C 29.82in /  1009.7hPa NE 2.9mph /  4.7km/h 7.0mph /  11.3km/h 19% 0.00in /  0mm 0.0 W/m2
05:22 70.0 °F /  21.1 °C 25.9 °F /  -3.4 °C 29.82in /  1009.7hPa Calm   5.0mph /  8km/h 19% 0.00in /  0mm 0.0 W/m2
05:28 70.0 °F /  21.1 °C 24.4 °F /  -4.2 °C 29.82in /  1009.7hPa Calm   8.0mph /  12.9km/h 18% 0.00in /  0mm 0.0 W/m2
05:32 69.4 °F /  20.8 °C 24.1 °F /  -4.4 °C 29.82in /  1009.7hPa North 0.9mph /  1.4km/h 5.0mph /  8km/h 18% 0.00in /  0mm 0.0 W/m2
05:34 69.3 °F /  20.7 °C 25.2 °F /  -3.8 °C 29.82in /  1009.7hPa NNW 0.9mph /  1.4km/h 5.0mph /  8km/h 19% 0.00in /  0mm 0.0 W/m2
05:38 68.9 °F /  20.5 °C 25.0 °F /  -3.9 °C 29.83in /  1010hPa North 0.9mph /  1.4km/h 6.0mph /  9.7km/h 19% 0.00in /  0mm 0.0 W/m2
05:44 68.4 °F /  20.2 °C 24.4 °F /  -4.2 °C 29.83in /  1010hPa NNE 2.9mph /  4.7km/h 6.0mph /  9.7km/h 19% 0.00in /  0mm 0.0 W/m2
05:50 68.4 °F /  20.2 °C 25.7 °F /  -3.5 °C 29.83in /  1010hPa Calm   8.0mph /  12.9km/h 20% 0.00in /  0mm 0.0 W/m2
05:54 68.4 °F /  20.2 °C 25.7 °F /  -3.5 °C 29.83in /  1010hPa Calm   3.0mph /  4.8km/h 20% 0.00in /  0mm 0.0 W/m2
06:00 68.4 °F /  20.2 °C 25.7 °F /  -3.5 °C 29.83in /  1010hPa Calm     20% 0.00in /  0mm 0.0 W/m2
06:07 68.2 °F /  20.1 °C 25.5 °F /  -3.6 °C 29.83in /  1010hPa Calm     20% 0.00in /  0mm 0.0 W/m2
06:13 67.8 °F /  19.9 °C 25.3 °F /  -3.7 °C 29.83in /  1010hPa Calm     20% 0.00in /  0mm 0.0 W/m2
06:19 67.3 °F /  19.6 °C 26.1 °F /  -3.3 °C 30.23in /  1023.6hPa Calm     21% 0.00in /  0mm 0.0 W/m2
06:25 66.6 °F /  19.2 °C 25.3 °F /  -3.7 °C 30.23in /  1023.6hPa Calm     21% 0.00in /  0mm 0.0 W/m2
06:31 65.8 °F /  18.8 °C 25.9 °F /  -3.4 °C 30.23in /  1023.6hPa Calm     22% 0.00in /  0mm 0.0 W/m2
06:37 65.1 °F /  18.4 °C 25.3 °F /  -3.7 °C 30.23in /  1023.6hPa Calm     22% 0.00in /  0mm 0.0 W/m2
06:43 64.6 °F /  18.1 °C 25.9 °F /  -3.4 °C 30.23in /  1023.6hPa Calm     23% 0.00in /  0mm 0.0 W/m2
06:49 63.9 °F /  17.7 °C 25.3 °F /  -3.7 °C 30.24in /  1023.9hPa Calm     23% 0.00in /  0mm 5.0 W/m2
06:56 63.3 °F /  17.4 °C 25.9 °F /  -3.4 °C 30.24in /  1023.9hPa Calm     24% 0.00in /  0mm 11.0 W/m2
07:02 63.0 °F /  17.2 °C 26.6 °F /  -3 °C 30.24in /  1023.9hPa Calm     25% 0.00in /  0mm 14.0 W/m2
07:08 62.8 °F /  17.1 °C 26.4 °F /  -3.1 °C 30.25in /  1024.3hPa Calm   1.0mph /  1.6km/h 25% 0.00in /  0mm 19.0 W/m2
07:14 63.1 °F /  17.3 °C 27.7 °F /  -2.4 °C 30.25in /  1024.3hPa Calm   3.0mph /  4.8km/h 26% 0.00in /  0mm 23.0 W/m2
07:20 64.2 °F /  17.9 °C 27.7 °F /  -2.4 °C 30.25in /  1024.3hPa NE 4.0mph /  6.4km/h 5.0mph /  8km/h 25% 0.00in /  0mm 28.0 W/m2
07:26 65.5 °F /  18.6 °C 28.8 °F /  -1.8 °C 30.25in /  1024.3hPa NE 0.9mph /  1.4km/h 3.0mph /  4.8km/h 25% 0.00in /  0mm 32.0 W/m2
07:32 66.0 °F /  18.9 °C 28.2 °F /  -2.1 °C 30.25in /  1024.3hPa Calm   6.0mph /  9.7km/h 24% 0.00in /  0mm 35.0 W/m2
07:38 66.6 °F /  19.2 °C 28.6 °F /  -1.9 °C 30.25in /  1024.3hPa Calm   4.0mph /  6.4km/h 24% 0.00in /  0mm 39.0 W/m2
07:45 66.7 °F /  19.3 °C 29.8 °F /  -1.2 °C 30.26in /  1024.6hPa Calm   1.0mph /  1.6km/h 25% 0.00in /  0mm 44.0 W/m2
07:51 66.9 °F /  19.4 °C 30.9 °F /  -0.6 °C 30.26in /  1024.6hPa Calm   1.0mph /  1.6km/h 26% 0.00in /  0mm 47.0 W/m2
07:57 67.3 °F /  19.6 °C 30.2 °F /  -1 °C 30.26in /  1024.6hPa Calm     25% 0.00in /  0mm 51.0 W/m2
08:03 67.6 °F /  19.8 °C 31.5 °F /  -0.3 °C 30.26in /  1024.6hPa Calm     26% 0.00in /  0mm 53.0 W/m2
08:09 68.2 °F /  20.1 °C 32.0 °F /  0 °C 30.26in /  1024.6hPa Calm   2.0mph /  3.2km/h 26% 0.00in /  0mm 54.0 W/m2
08:15 68.7 °F /  20.4 °C 31.5 °F /  -0.3 °C 30.26in /  1024.6hPa Calm   4.0mph /  6.4km/h 25% 0.00in /  0mm 58.0 W/m2
08:21 69.4 °F /  20.8 °C 31.1 °F /  -0.5 °C 30.26in /  1024.6hPa Calm   4.0mph /  6.4km/h 24% 0.00in /  0mm 62.0 W/m2
08:28 70.2 °F /  21.2 °C 31.6 °F /  -0.2 °C 30.26in /  1024.6hPa Calm   2.0mph /  3.2km/h 24% 0.00in /  0mm 65.0 W/m2
08:34 71.1 °F /  21.7 °C 31.5 °F /  -0.3 °C 30.26in /  1024.6hPa Calm   3.0mph /  4.8km/h 23% 0.00in /  0mm 67.0 W/m2
08:40 71.8 °F /  22.1 °C 32.0 °F /  0 °C 30.26in /  1024.6hPa Calm   5.0mph /  8km/h 23% 0.00in /  0mm 70.0 W/m2
08:46 72.3 °F /  22.4 °C 31.3 °F /  -0.4 °C 30.26in /  1024.6hPa Calm   3.0mph /  4.8km/h 22% 0.00in /  0mm 74.0 W/m2
08:52 73.0 °F /  22.8 °C 32.0 °F /  0 °C 30.26in /  1024.6hPa Calm   3.0mph /  4.8km/h 22% 0.00in /  0mm 77.0 W/m2
08:58 73.6 °F /  23.1 °C 32.4 °F /  0.2 °C 30.26in /  1024.6hPa East 0.9mph /  1.4km/h 4.0mph /  6.4km/h 22% 0.00in /  0mm 81.0 W/m2
09:04 74.1 °F /  23.4 °C 31.6 °F /  -0.2 °C 30.26in /  1024.6hPa Calm   1.0mph /  1.6km/h 21% 0.00in /  0mm 84.0 W/m2
09:10 74.8 °F /  23.8 °C 33.4 °F /  0.8 °C 30.26in /  1024.6hPa NNE 2.0mph /  3.2km/h 5.0mph /  8km/h 22% 0.00in /  0mm 90.0 W/m2
09:16 75.6 °F /  24.2 °C 32.9 °F /  0.5 °C 30.26in /  1024.6hPa Calm   5.0mph /  8km/h 21% 0.00in /  0mm 90.0 W/m2
09:22 76.3 °F /  24.6 °C 32.2 °F /  0.1 °C 30.26in /  1024.6hPa NE 0.9mph /  1.4km/h 1.0mph /  1.6km/h 20% 0.00in /  0mm 95.0 W/m2
09:29 76.8 °F /  24.9 °C 32.7 °F /  0.4 °C 30.26in /  1024.6hPa East 0.9mph /  1.4km/h 2.0mph /  3.2km/h 20% 0.00in /  0mm 98.0 W/m2
09:35 77.5 °F /  25.3 °C 33.3 °F /  0.7 °C 30.25in /  1024.3hPa NNW 0.9mph /  1.4km/h 1.0mph /  1.6km/h 20% 0.00in /  0mm 107.0 W/m2
09:41 78.3 °F /  25.7 °C 32.5 °F /  0.3 °C 30.25in /  1024.3hPa Calm   4.0mph /  6.4km/h 19% 0.00in /  0mm 522.0 W/m2
09:47 79.5 °F /  26.4 °C 33.6 °F /  0.9 °C 30.25in /  1024.3hPa Calm   3.0mph /  4.8km/h 19% 0.00in /  0mm 540.0 W/m2
09:53 80.8 °F /  27.1 °C 34.7 °F /  1.5 °C 30.25in /  1024.3hPa NNW 2.0mph /  3.2km/h 6.0mph /  9.7km/h 19% 0.00in /  0mm 561.0 W/m2
09:59 81.9 °F /  27.7 °C 34.2 °F /  1.2 °C 30.25in /  1024.3hPa North 0.9mph /  1.4km/h 5.0mph /  8km/h 18% 0.00in /  0mm 573.0 W/m2
10:05 82.6 °F /  28.1 °C 34.7 °F /  1.5 °C 30.25in /  1024.3hPa NE 2.0mph /  3.2km/h 5.0mph /  8km/h 18% 0.00in /  0mm 591.0 W/m2
10:11 83.5 °F /  28.6 °C 35.6 °F /  2 °C 30.25in /  1024.3hPa ENE 2.0mph /  3.2km/h 8.0mph /  12.9km/h 18% 0.00in /  0mm 606.0 W/m2
10:18 84.0 °F /  28.9 °C 34.5 °F /  1.4 °C 30.24in /  1023.9hPa East 0.9mph /  1.4km/h 4.0mph /  6.4km/h 17% 0.00in /  0mm 619.0 W/m2
10:24 84.7 °F /  29.3 °C 35.1 °F /  1.7 °C 30.24in /  1023.9hPa North 2.0mph /  3.2km/h 5.0mph /  8km/h 17% 0.00in /  0mm 640.0 W/m2
10:30 85.3 °F /  29.6 °C 35.6 °F /  2 °C 30.24in /  1023.9hPa NNW 4.9mph /  7.9km/h 10.0mph /  16.1km/h 17% 0.00in /  0mm 652.0 W/m2
10:36 85.6 °F /  29.8 °C 35.8 °F /  2.1 °C 30.23in /  1023.6hPa WNW 2.9mph /  4.7km/h 7.0mph /  11.3km/h 17% 0.00in /  0mm 661.0 W/m2
10:42 86.2 °F /  30.1 °C 34.7 °F /  1.5 °C 30.23in /  1023.6hPa North 2.9mph /  4.7km/h 5.0mph /  8km/h 16% 0.00in /  0mm 679.0 W/m2
10:48 86.5 °F /  30.3 °C 33.4 °F /  0.8 °C 30.23in /  1023.6hPa North 4.0mph /  6.4km/h 7.0mph /  11.3km/h 15% 0.00in /  0mm 691.0 W/m2
10:54 86.7 °F /  30.4 °C 31.8 °F /  -0.1 °C 30.23in /  1023.6hPa ENE 6.9mph /  11.1km/h 7.0mph /  11.3km/h 14% 0.00in /  0mm 715.0 W/m2
11:01 87.3 °F /  30.7 °C 32.2 °F /  0.1 °C 30.22in /  1023.2hPa North 0.9mph /  1.4km/h 11.0mph /  17.7km/h 14% 0.00in /  0mm 721.0 W/m2
11:07 87.4 °F /  30.8 °C 32.4 °F /  0.2 °C 30.22in /  1023.2hPa North 4.9mph /  7.9km/h 11.0mph /  17.7km/h 14% 0.00in /  0mm 733.0 W/m2
11:13 88.0 °F /  31.1 °C 28.9 °F /  -1.7 °C 30.22in /  1023.2hPa NNW 6.9mph /  11.1km/h 11.0mph /  17.7km/h 12% 0.00in /  0mm 751.0 W/m2
11:19 88.3 °F /  31.3 °C 31.3 °F /  -0.4 °C 30.22in /  1023.2hPa North 4.0mph /  6.4km/h 12.0mph /  19.3km/h 13% 0.00in /  0mm 758.0 W/m2
11:25 88.9 °F /  31.6 °C 27.5 °F /  -2.5 °C 30.21in /  1022.9hPa NNW 6.9mph /  11.1km/h 13.0mph /  20.9km/h 11% 0.00in /  0mm 763.0 W/m2
11:31 89.1 °F /  31.7 °C 27.7 °F /  -2.4 °C 30.21in /  1022.9hPa NNE 6.9mph /  11.1km/h 10.0mph /  16.1km/h 11% 0.00in /  0mm 775.0 W/m2
11:37 89.4 °F /  31.9 °C 28.0 °F /  -2.2 °C 30.21in /  1022.9hPa East 4.9mph /  7.9km/h 9.0mph /  14.5km/h 11% 0.00in /  0mm 784.0 W/m2
11:43 89.8 °F /  32.1 °C 28.2 °F /  -2.1 °C 30.20in /  1022.6hPa North 4.9mph /  7.9km/h 11.0mph /  17.7km/h 11% 0.00in /  0mm 784.0 W/m2
11:50 90.0 °F /  32.2 °C 28.4 °F /  -2 °C 30.20in /  1022.6hPa ESE 2.9mph /  4.7km/h 6.0mph /  9.7km/h 11% 0.00in /  0mm 795.0 W/m2
11:56 90.7 °F /  32.6 °C 28.9 °F /  -1.7 °C 30.20in /  1022.6hPa NE 6.0mph /  9.7km/h 7.0mph /  11.3km/h 11% 0.00in /  0mm 798.0 W/m2
12:02 90.9 °F /  32.7 °C 26.8 °F /  -2.9 °C 30.19in /  1022.2hPa Calm   7.0mph /  11.3km/h 10% 0.00in /  0mm 809.0 W/m2
12:08 91.0 °F /  32.8 °C 27.0 °F /  -2.8 °C 30.19in /  1022.2hPa SSW 0.9mph /  1.4km/h 14.0mph /  22.5km/h 10% 0.00in /  0mm 812.0 W/m2
12:14 90.9 °F /  32.7 °C 26.8 °F /  -2.9 °C 30.19in /  1022.2hPa North 4.0mph /  6.4km/h 6.0mph /  9.7km/h 10% 0.00in /  0mm 805.0 W/m2
12:20 91.2 °F /  32.9 °C 27.1 °F /  -2.7 °C 30.18in /  1021.9hPa NE 12.1mph /  19.5km/h 12.1mph /  19.5km/h 10% 0.00in /  0mm 814.0 W/m2
12:26 91.0 °F /  32.8 °C 27.0 °F /  -2.8 °C 30.18in /  1021.9hPa ENE 6.0mph /  9.7km/h 9.0mph /  14.5km/h 10% 0.00in /  0mm 812.0 W/m2
12:33 91.0 °F /  32.8 °C 27.0 °F /  -2.8 °C 30.18in /  1021.9hPa Calm   7.0mph /  11.3km/h 10% 0.00in /  0mm 814.0 W/m2
12:39 91.6 °F /  33.1 °C 27.3 °F /  -2.6 °C 30.17in /  1021.6hPa NNE 2.9mph /  4.7km/h 13.0mph /  20.9km/h 10% 0.00in /  0mm 819.0 W/m2
12:45 91.9 °F /  33.3 °C 27.7 °F /  -2.4 °C 30.17in /  1021.6hPa West 2.0mph /  3.2km/h 6.0mph /  9.7km/h 10% 0.00in /  0mm 821.0 W/m2
12:51 91.8 °F /  33.2 °C 27.5 °F /  -2.5 °C 30.17in /  1021.6hPa East 6.0mph /  9.7km/h 6.0mph /  9.7km/h 10% 0.00in /  0mm 821.0 W/m2
12:57 92.1 °F /  33.4 °C 27.7 °F /  -2.4 °C 30.16in /  1021.2hPa ESE 4.9mph /  7.9km/h 11.0mph /  17.7km/h 10% 0.00in /  0mm 821.0 W/m2
13:05 92.5 °F /  33.6 °C 28.0 °F /  -2.2 °C 30.16in /  1021.2hPa NE 6.0mph /  9.7km/h 8.0mph /  12.9km/h 10% 0.00in /  0mm 809.0 W/m2
13:11 92.7 °F /  33.7 °C 28.2 °F /  -2.1 °C 30.15in /  1020.9hPa North 6.0mph /  9.7km/h 11.0mph /  17.7km/h 10% 0.00in /  0mm 803.0 W/m2
13:18 92.8 °F /  33.8 °C 28.2 °F /  -2.1 °C 30.15in /  1020.9hPa North 2.9mph /  4.7km/h 7.0mph /  11.3km/h 10% 0.00in /  0mm 800.0 W/m2
13:24 93.0 °F /  33.9 °C 28.4 °F /  -2 °C 30.15in /  1020.9hPa NNW 2.9mph /  4.7km/h 8.0mph /  12.9km/h 10% 0.00in /  0mm 788.0 W/m2
13:30 93.0 °F /  33.9 °C 28.4 °F /  -2 °C 30.15in /  1020.9hPa SE 0.9mph /  1.4km/h 6.0mph /  9.7km/h 10% 0.00in /  0mm 784.0 W/m2
13:36 93.4 °F /  34.1 °C 28.8 °F /  -1.8 °C 30.14in /  1020.5hPa Calm   7.0mph /  11.3km/h 10% 0.00in /  0mm 788.0 W/m2
13:42 93.6 °F /  34.2 °C 28.8 °F /  -1.8 °C 30.14in /  1020.5hPa ESE 6.0mph /  9.7km/h 7.0mph /  11.3km/h 10% 0.00in /  0mm 773.0 W/m2
13:48 93.7 °F /  34.3 °C 28.9 °F /  -1.7 °C 30.14in /  1020.5hPa Calm   5.0mph /  8km/h 10% 0.00in /  0mm 768.0 W/m2
13:54 93.6 °F /  34.2 °C 28.8 °F /  -1.8 °C 30.14in /  1020.5hPa ENE 6.9mph /  11.1km/h 7.0mph /  11.3km/h 10% 0.00in /  0mm 715.0 W/m2
14:00 93.6 °F /  34.2 °C 28.8 °F /  -1.8 °C 30.14in /  1020.5hPa ENE 4.9mph /  7.9km/h 13.0mph /  20.9km/h 10% 0.00in /  0mm 740.0 W/m2
14:07 93.2 °F /  34 °C 28.6 °F /  -1.9 °C 30.13in /  1020.2hPa North 11.0mph /  17.7km/h 11.0mph /  17.7km/h 10% 0.00in /  0mm 737.0 W/m2
14:13 93.0 °F /  33.9 °C 28.4 °F /  -2 °C 30.13in /  1020.2hPa NNW 4.9mph /  7.9km/h 10.0mph /  16.1km/h 10% 0.00in /  0mm 735.0 W/m2
14:19 93.4 °F /  34.1 °C 28.8 °F /  -1.8 °C 30.12in /  1019.9hPa Calm   4.0mph /  6.4km/h 10% 0.00in /  0mm 719.0 W/m2
14:25 93.4 °F /  34.1 °C 28.8 °F /  -1.8 °C 30.12in /  1019.9hPa Calm   6.0mph /  9.7km/h 10% 0.00in /  0mm 707.0 W/m2
14:31 93.4 °F /  34.1 °C 28.8 °F /  -1.8 °C 30.12in /  1019.9hPa Calm   5.0mph /  8km/h 10% 0.00in /  0mm 701.0 W/m2
14:37 93.4 °F /  34.1 °C 28.8 °F /  -1.8 °C 30.12in /  1019.9hPa NE 0.9mph /  1.4km/h 4.0mph /  6.4km/h 10% 0.00in /  0mm 698.0 W/m2
14:43 93.9 °F /  34.4 °C 29.1 °F /  -1.6 °C 30.12in /  1019.9hPa ENE 6.9mph /  11.1km/h 11.0mph /  17.7km/h 10% 0.00in /  0mm 687.0 W/m2
14:50 94.3 °F /  34.6 °C 29.3 °F /  -1.5 °C 30.11in /  1019.5hPa SE 2.0mph /  3.2km/h 9.0mph /  14.5km/h 10% 0.00in /  0mm 694.0 W/m2
14:56 94.5 °F /  34.7 °C 29.5 °F /  -1.4 °C 30.11in /  1019.5hPa SW 0.9mph /  1.4km/h 4.0mph /  6.4km/h 10% 0.00in /  0mm 668.0 W/m2
15:02 94.6 °F /  34.8 °C 29.7 °F /  -1.3 °C 30.11in /  1019.5hPa WSW 2.0mph /  3.2km/h 8.0mph /  12.9km/h 10% 0.00in /  0mm 650.0 W/m2
15:08 94.6 °F /  34.8 °C 29.7 °F /  -1.3 °C 30.10in /  1019.2hPa North 6.0mph /  9.7km/h 7.0mph /  11.3km/h 10% 0.00in /  0mm 628.0 W/m2
15:14 94.1 °F /  34.5 °C 29.3 °F /  -1.5 °C 30.10in /  1019.2hPa NNE 2.9mph /  4.7km/h 6.0mph /  9.7km/h 10% 0.00in /  0mm 601.0 W/m2
15:20 93.9 °F /  34.4 °C 29.1 °F /  -1.6 °C 30.10in /  1019.2hPa NNE 2.0mph /  3.2km/h 6.0mph /  9.7km/h 10% 0.00in /  0mm 584.0 W/m2
15:26 93.7 °F /  34.3 °C 26.4 °F /  -3.1 °C 30.10in /  1019.2hPa ENE 4.0mph /  6.4km/h 9.0mph /  14.5km/h 9% 0.00in /  0mm 571.0 W/m2
15:32 93.7 °F /  34.3 °C 28.9 °F /  -1.7 °C 30.10in /  1019.2hPa Calm   3.0mph /  4.8km/h 10% 0.00in /  0mm 577.0 W/m2
15:39 94.3 °F /  34.6 °C 29.3 °F /  -1.5 °C 30.10in /  1019.2hPa NE 2.9mph /  4.7km/h 7.0mph /  11.3km/h 10% 0.00in /  0mm 555.0 W/m2
15:45 94.5 °F /  34.7 °C 29.5 °F /  -1.4 °C 30.10in /  1019.2hPa SE 2.9mph /  4.7km/h 5.0mph /  8km/h 10% 0.00in /  0mm 548.0 W/m2
15:51 94.5 °F /  34.7 °C 29.5 °F /  -1.4 °C 30.10in /  1019.2hPa Calm   6.0mph /  9.7km/h 10% 0.00in /  0mm 508.0 W/m2
15:57 94.3 °F /  34.6 °C 29.3 °F /  -1.5 °C 30.10in /  1019.2hPa SE 8.9mph /  14.3km/h 9.0mph /  14.5km/h 10% 0.00in /  0mm 485.0 W/m2
16:03 94.3 °F /  34.6 °C 29.3 °F /  -1.5 °C 30.09in /  1018.8hPa North 4.0mph /  6.4km/h 7.0mph /  11.3km/h 10% 0.00in /  0mm 466.0 W/m2
16:09 94.1 °F /  34.5 °C 29.3 °F /  -1.5 °C 30.09in /  1018.8hPa SE 4.0mph /  6.4km/h 13.0mph /  20.9km/h 10% 0.00in /  0mm 371.0 W/m2
16:15 93.6 °F /  34.2 °C 28.8 °F /  -1.8 °C 30.10in /  1019.2hPa NE 0.9mph /  1.4km/h 8.0mph /  12.9km/h 10% 0.00in /  0mm 436.0 W/m2
16:21 93.6 °F /  34.2 °C 28.8 °F /  -1.8 °C 30.09in /  1018.8hPa ESE 2.9mph /  4.7km/h 8.0mph /  12.9km/h 10% 0.00in /  0mm 418.0 W/m2
16:27 93.0 °F /  33.9 °C 28.4 °F /  -2 °C 30.09in /  1018.8hPa SE 2.0mph /  3.2km/h 5.0mph /  8km/h 10% 0.00in /  0mm 399.0 W/m2
16:34 93.0 °F /  33.9 °C 28.4 °F /  -2 °C 30.09in /  1018.8hPa Calm   8.0mph /  12.9km/h 10% 0.00in /  0mm 388.0 W/m2
16:40 93.4 °F /  34.1 °C 28.8 °F /  -1.8 °C 30.09in /  1018.8hPa East 2.0mph /  3.2km/h 8.0mph /  12.9km/h 10% 0.00in /  0mm 355.0 W/m2
16:46 93.6 °F /  34.2 °C 28.8 °F /  -1.8 °C 30.09in /  1018.8hPa East 0.9mph /  1.4km/h 4.0mph /  6.4km/h 10% 0.00in /  0mm 325.0 W/m2
16:52 93.4 °F /  34.1 °C 28.8 °F /  -1.8 °C 30.10in /  1019.2hPa NNE 6.0mph /  9.7km/h 8.0mph /  12.9km/h 10% 0.00in /  0mm 172.0 W/m2
17:04 92.5 °F /  33.6 °C 30.4 °F /  -0.9 °C 30.10in /  1019.2hPa ESE 2.9mph /  4.7km/h 5.0mph /  8km/h 11% 0.00in /  0mm 93.0 W/m2
17:10 91.8 °F /  33.2 °C 29.8 °F /  -1.2 °C 30.10in /  1019.2hPa ENE 2.9mph /  4.7km/h 7.0mph /  11.3km/h 11% 0.00in /  0mm 97.0 W/m2
17:16 91.2 °F /  32.9 °C 29.3 °F /  -1.5 °C 30.10in /  1019.2hPa Calm   5.0mph /  8km/h 11% 0.00in /  0mm 81.0 W/m2
17:23 90.9 °F /  32.7 °C 29.1 °F /  -1.6 °C 30.09in /  1018.8hPa ESE 0.9mph /  1.4km/h 6.0mph /  9.7km/h 11% 0.00in /  0mm 74.0 W/m2
17:29 90.3 °F /  32.4 °C 28.8 °F /  -1.8 °C 30.10in /  1019.2hPa Calm   5.0mph /  8km/h 11% 0.00in /  0mm 69.0 W/m2
17:35 89.8 °F /  32.1 °C 28.2 °F /  -2.1 °C 30.10in /  1019.2hPa ESE 0.9mph /  1.4km/h 5.0mph /  8km/h 11% 0.00in /  0mm 76.0 W/m2
17:41 89.6 °F /  32 °C 28.2 °F /  -2.1 °C 30.10in /  1019.2hPa NE 0.9mph /  1.4km/h 8.0mph /  12.9km/h 11% 0.00in /  0mm 63.0 W/m2
17:47 89.4 °F /  31.9 °C 30.2 °F /  -1 °C 30.10in /  1019.2hPa NNE 0.9mph /  1.4km/h 6.0mph /  9.7km/h 12% 0.00in /  0mm 58.0 W/m2
17:53 89.1 °F /  31.7 °C 29.8 °F /  -1.2 °C 30.10in /  1019.2hPa ESE 0.9mph /  1.4km/h 2.0mph /  3.2km/h 12% 0.00in /  0mm 56.0 W/m2
17:59 88.9 °F /  31.6 °C 29.7 °F /  -1.3 °C 30.10in /  1019.2hPa Calm   4.0mph /  6.4km/h 12% 0.00in /  0mm 56.0 W/m2
18:05 88.3 °F /  31.3 °C 29.3 °F /  -1.5 °C 30.10in /  1019.2hPa Calm   4.0mph /  6.4km/h 12% 0.00in /  0mm 49.0 W/m2
18:11 88.2 °F /  31.2 °C 29.1 °F /  -1.6 °C 30.10in /  1019.2hPa Calm   2.0mph /  3.2km/h 12% 0.00in /  0mm 47.0 W/m2
18:18 88.0 °F /  31.1 °C 28.9 °F /  -1.7 °C 30.10in /  1019.2hPa Calm   2.0mph /  3.2km/h 12% 0.00in /  0mm 33.0 W/m2
18:24 87.8 °F /  31 °C 28.9 °F /  -1.7 °C 30.10in /  1019.2hPa Calm   4.0mph /  6.4km/h 12% 0.00in /  0mm 21.0 W/m2
18:30 87.4 °F /  30.8 °C 28.6 °F /  -1.9 °C 30.11in /  1019.5hPa Calm   2.0mph /  3.2km/h 12% 0.00in /  0mm 12.0 W/m2
18:36 87.1 °F /  30.6 °C 28.4 °F /  -2 °C 30.11in /  1019.5hPa Calm   2.0mph /  3.2km/h 12% 0.00in /  0mm 7.0 W/m2
18:42 86.7 °F /  30.4 °C 30.0 °F /  -1.1 °C 30.11in /  1019.5hPa Calm   1.0mph /  1.6km/h 13% 0.00in /  0mm 0.0 W/m2
18:48 86.4 °F /  30.2 °C 31.5 °F /  -0.3 °C 30.11in /  1019.5hPa Calm   2.0mph /  3.2km/h 14% 0.00in /  0mm 0.0 W/m2
18:54 85.6 °F /  29.8 °C 29.1 °F /  -1.6 °C 30.12in /  1019.9hPa Calm   1.0mph /  1.6km/h 13% 0.00in /  0mm 0.0 W/m2
19:00 85.3 °F /  29.6 °C 28.9 °F /  -1.7 °C 30.12in /  1019.9hPa Calm     13% 0.00in /  0mm 0.0 W/m2
19:07 84.7 °F /  29.3 °C 30.2 °F /  -1 °C 30.12in /  1019.9hPa Calm   1.0mph /  1.6km/h 14% 0.00in /  0mm 0.0 W/m2
19:13 84.4 °F /  29.1 °C 30.0 °F /  -1.1 °C 30.12in /  1019.9hPa Calm     14% 0.00in /  0mm 0.0 W/m2
19:19 83.8 °F /  28.8 °C 29.5 °F /  -1.4 °C 30.12in /  1019.9hPa Calm     14% 0.00in /  0mm 0.0 W/m2
19:25 83.3 °F /  28.5 °C 29.1 °F /  -1.6 °C 30.13in /  1020.2hPa Calm     14% 0.00in /  0mm 0.0 W/m2
19:31 82.8 °F /  28.2 °C 30.4 °F /  -0.9 °C 30.13in /  1020.2hPa Calm     15% 0.00in /  0mm 0.0 W/m2
19:37 82.2 °F /  27.9 °C 28.2 °F /  -2.1 °C 30.13in /  1020.2hPa Calm     14% 0.00in /  0mm 0.0 W/m2
19:43 81.7 °F /  27.6 °C 27.9 °F /  -2.3 °C 30.14in /  1020.5hPa NE 0.9mph /  1.4km/h 3.0mph /  4.8km/h 14% 0.00in /  0mm 0.0 W/m2
19:50 81.3 °F /  27.4 °C 29.3 °F /  -1.5 °C 30.14in /  1020.5hPa Calm   3.0mph /  4.8km/h 15% 0.00in /  0mm 0.0 W/m2
19:56 81.1 °F /  27.3 °C 29.1 °F /  -1.6 °C 30.14in /  1020.5hPa Calm   1.0mph /  1.6km/h 15% 0.00in /  0mm 0.0 W/m2
20:02 81.0 °F /  27.2 °C 28.9 °F /  -1.7 °C 30.14in /  1020.5hPa Calm     15% 0.00in /  0mm 0.0 W/m2
20:10 80.4 °F /  26.9 °C 28.6 °F /  -1.9 °C 30.15in /  1020.9hPa Calm   1.0mph /  1.6km/h 15% 0.00in /  0mm 0.0 W/m2
20:16 80.1 °F /  26.7 °C 28.2 °F /  -2.1 °C 30.15in /  1020.9hPa Calm     15% 0.00in /  0mm 0.0 W/m2
20:22 79.7 °F /  26.5 °C 28.0 °F /  -2.2 °C 30.15in /  1020.9hPa Calm   2.0mph /  3.2km/h 15% 0.00in /  0mm 0.0 W/m2
20:29 79.5 °F /  26.4 °C 27.9 °F /  -2.3 °C 30.15in /  1020.9hPa Calm   1.0mph /  1.6km/h 15% 0.00in /  0mm 0.0 W/m2
20:35 79.3 °F /  26.3 °C 27.7 °F /  -2.4 °C 30.16in /  1021.2hPa Calm   4.0mph /  6.4km/h 15% 0.00in /  0mm 0.0 W/m2
20:41 79.3 °F /  26.3 °C 27.7 °F /  -2.4 °C 30.16in /  1021.2hPa Calm   1.0mph /  1.6km/h 15% 0.00in /  0mm 0.0 W/m2
20:47 79.2 °F /  26.2 °C 27.5 °F /  -2.5 °C 30.17in /  1021.6hPa ENE 4.0mph /  6.4km/h 4.0mph /  6.4km/h 15% 0.00in /  0mm 0.0 W/m2
20:53 79.0 °F /  26.1 °C 27.3 °F /  -2.6 °C 30.17in /  1021.6hPa Calm   1.0mph /  1.6km/h 15% 0.00in /  0mm 0.0 W/m2
20:59 78.8 °F /  26 °C 28.8 °F /  -1.8 °C 30.17in /  1021.6hPa Calm   3.0mph /  4.8km/h 16% 0.00in /  0mm 0.0 W/m2
21:06 78.6 °F /  25.9 °C 27.1 °F /  -2.7 °C 30.17in /  1021.6hPa Calm   1.0mph /  1.6km/h 15% 0.00in /  0mm 0.0 W/m2
21:12 78.6 °F /  25.9 °C 28.8 °F /  -1.8 °C 30.18in /  1021.9hPa Calm   5.0mph /  8km/h 16% 0.00in /  0mm 0.0 W/m2
21:18 78.8 °F /  26 °C 27.3 °F /  -2.6 °C 30.19in /  1022.2hPa NNW 2.9mph /  4.7km/h 4.0mph /  6.4km/h 15% 0.00in /  0mm 0.0 W/m2
21:24 78.8 °F /  26 °C 28.8 °F /  -1.8 °C 30.19in /  1022.2hPa Calm   1.0mph /  1.6km/h 16% 0.00in /  0mm 0.0 W/m2
21:30 78.8 °F /  26 °C 27.3 °F /  -2.6 °C 30.20in /  1022.6hPa Calm   2.0mph /  3.2km/h 15% 0.00in /  0mm 0.0 W/m2
21:36 79.0 °F /  26.1 °C 27.3 °F /  -2.6 °C 30.20in /  1022.6hPa ENE 0.9mph /  1.4km/h 1.0mph /  1.6km/h 15% 0.00in /  0mm 0.0 W/m2
21:42 79.0 °F /  26.1 °C 27.3 °F /  -2.6 °C 30.20in /  1022.6hPa Calm   2.0mph /  3.2km/h 15% 0.00in /  0mm 0.0 W/m2
21:48 78.8 °F /  26 °C 27.3 °F /  -2.6 °C 30.20in /  1022.6hPa Calm   1.0mph /  1.6km/h 15% 0.00in /  0mm 0.0 W/m2
21:54 78.6 °F /  25.9 °C 28.8 °F /  -1.8 °C 30.20in /  1022.6hPa East 4.0mph /  6.4km/h 4.0mph /  6.4km/h 16% 0.00in /  0mm 0.0 W/m2
22:01 78.4 °F /  25.8 °C 28.6 °F /  -1.9 °C 30.20in /  1022.6hPa Calm   1.0mph /  1.6km/h 16% 0.00in /  0mm 0.0 W/m2
22:07 78.3 °F /  25.7 °C 28.4 °F /  -2 °C 30.20in /  1022.6hPa East 2.0mph /  3.2km/h 4.0mph /  6.4km/h 16% 0.00in /  0mm 0.0 W/m2
22:13 78.1 °F /  25.6 °C 28.2 °F /  -2.1 °C 30.20in /  1022.6hPa SE 2.0mph /  3.2km/h 4.0mph /  6.4km/h 16% 0.00in /  0mm 0.0 W/m2
22:19 77.7 °F /  25.4 °C 27.9 °F /  -2.3 °C 30.20in /  1022.6hPa ESE 0.9mph /  1.4km/h 4.0mph /  6.4km/h 16% 0.00in /  0mm 0.0 W/m2
22:25 77.7 °F /  25.4 °C 27.9 °F /  -2.3 °C 30.20in /  1022.6hPa Calm   3.0mph /  4.8km/h 16% 0.00in /  0mm 0.0 W/m2
22:31 77.5 °F /  25.3 °C 27.9 °F /  -2.3 °C 30.21in /  1022.9hPa Calm   2.0mph /  3.2km/h 16% 0.00in /  0mm 0.0 W/m2
22:35 77.5 °F /  25.3 °C 27.9 °F /  -2.3 °C 30.20in /  1022.6hPa Calm     16% 0.00in /  0mm 0.0 W/m2
22:41 77.4 °F /  25.2 °C 29.1 °F /  -1.6 °C 30.20in /  1022.6hPa Calm     17% 0.00in /  0mm 0.0 W/m2
22:48 77.0 °F /  25 °C 28.8 °F /  -1.8 °C 30.21in /  1022.9hPa Calm   1.0mph /  1.6km/h 17% 0.00in /  0mm 0.0 W/m2
22:54 76.5 °F /  24.7 °C 28.4 °F /  -2 °C 30.21in /  1022.9hPa Calm     17% 0.00in /  0mm 0.0 W/m2
23:00 76.1 °F /  24.5 °C 28.0 °F /  -2.2 °C 30.21in /  1022.9hPa Calm     17% 0.00in /  0mm 0.0 W/m2
23:06 75.7 °F /  24.3 °C 27.9 °F /  -2.3 °C 30.21in /  1022.9hPa Calm     17% 0.00in /  0mm 0.0 W/m2
23:12 75.2 °F /  24 °C 28.8 °F /  -1.8 °C 30.21in /  1022.9hPa Calm     18% 0.00in /  0mm 0.0 W/m2
23:18 74.7 °F /  23.7 °C 28.4 °F /  -2 °C 30.20in /  1022.6hPa Calm   1.0mph /  1.6km/h 18% 0.00in /  0mm 0.0 W/m2
23:24 74.3 °F /  23.5 °C 28.0 °F /  -2.2 °C 30.20in /  1022.6hPa Calm     18% 0.00in /  0mm 0.0 W/m2
23:30 73.9 °F /  23.3 °C 29.1 °F /  -1.6 °C 30.20in /  1022.6hPa Calm     19% 0.00in /  0mm 0.0 W/m2
23:36 73.8 °F /  23.2 °C 28.9 °F /  -1.7 °C 30.20in /  1022.6hPa Calm   1.0mph /  1.6km/h 19% 0.00in /  0mm 0.0 W/m2
23:43 73.6 °F /  23.1 °C 30.0 °F /  -1.1 °C 30.20in /  1022.6hPa Calm     20% 0.00in /  0mm 0.0 W/m2
23:49 73.6 °F /  23.1 °C 30.0 °F /  -1.1 °C 30.20in /  1022.6hPa Calm     20% 0.00in /  0mm 0.0 W/m2
23:55 73.6 °F /  23.1 °C 31.3 °F /  -0.4 °C 30.20in /  1022.6hPa Calm   3.0mph /  4.8km/h 21% 0.00in /  0mm 0.0 W/m2
Olympia, Windhoek, Namibia
Compliments of Weather Underground - 3 mb